createdAt,value
2023-04-08T00:02:12.973Z,8.45
2023-04-08T00:04:39.401Z,8.38
2023-04-08T00:09:51.303Z,8.40
2023-04-08T00:12:18.281Z,8.63
2023-04-08T00:15:32.955Z,8.15
2023-04-08T00:17:59.509Z,8.25
2023-04-08T00:20:26.060Z,8.65
2023-04-08T00:22:52.486Z,8.65
2023-04-08T00:25:19.161Z,8.02
2023-04-08T00:27:45.573Z,7.93
2023-04-08T00:30:12.056Z,9.15
2023-04-08T00:32:39.159Z,9.25
2023-04-08T00:35:05.738Z,9.13
2023-04-08T00:37:32.654Z,7.72
2023-04-08T00:39:59.592Z,8.15
2023-04-08T00:43:09.525Z,7.40
2023-04-08T00:45:36.810Z,7.32
2023-04-08T00:48:04.866Z,8.73
2023-04-08T00:50:31.433Z,8.73
2023-04-08T00:52:58.124Z,8.10
2023-04-08T00:55:24.462Z,8.05
2023-04-08T00:57:51.483Z,7.88
2023-04-08T01:00:17.855Z,8.20
2023-04-08T01:02:51.445Z,7.80
2023-04-08T01:05:35.621Z,8.45
2023-04-08T01:08:06.710Z,8.45
2023-04-08T01:10:35.364Z,8.18
2023-04-08T01:13:09.887Z,9.23
2023-04-08T01:15:39.468Z,8.45
2023-04-08T01:18:11.649Z,8.20
2023-04-08T01:20:40.832Z,8.23
2023-04-08T01:23:18.062Z,7.95
2023-04-08T01:25:54.007Z,7.97
2023-04-08T01:28:23.645Z,7.95
2023-04-08T01:30:51.182Z,7.97
2023-04-08T01:33:18.928Z,7.88
2023-04-08T01:35:46.646Z,8.05
2023-04-08T01:38:16.357Z,8.00
2023-04-08T01:40:43.719Z,7.82
2023-04-08T01:43:15.414Z,7.05
2023-04-08T01:45:49.291Z,8.02
2023-04-08T01:48:16.742Z,8.50
2023-04-08T01:50:44.625Z,8.70
2023-04-08T01:53:12.432Z,8.02
2023-04-08T01:55:44.602Z,7.97
2023-04-08T01:59:04.583Z,9.10
2023-04-08T02:01:32.835Z,8.07
2023-04-08T02:04:00.598Z,8.25
2023-04-08T02:06:29.449Z,8.50
2023-04-08T02:09:00.064Z,9.30
2023-04-08T02:11:28.146Z,8.95
2023-04-08T02:13:55.050Z,8.75
2023-04-08T02:16:28.864Z,8.98
2023-04-08T02:19:09.946Z,8.73
2023-04-08T02:22:12.922Z,9.43
2023-04-08T02:24:41.091Z,8.48
2023-04-08T02:27:11.361Z,7.80
2023-04-08T02:29:43.265Z,7.88
2023-04-08T02:32:12.014Z,8.02
2023-04-08T02:34:41.598Z,9.27
2023-04-08T02:37:09.454Z,9.15
2023-04-08T02:39:35.993Z,9.05
2023-04-08T02:42:03.805Z,8.00
2023-04-08T02:44:30.524Z,8.48
2023-04-08T02:46:56.950Z,9.77
2023-04-08T02:49:23.308Z,9.50
2023-04-08T02:51:50.100Z,9.13
2023-04-08T02:54:16.434Z,9.40
2023-04-08T02:56:42.906Z,8.98
2023-04-08T02:59:09.647Z,10.70
2023-04-08T03:01:36.236Z,11.25
2023-04-08T03:04:02.737Z,9.93
2023-04-08T03:09:23.978Z,10.05
2023-04-08T03:11:53.083Z,11.45
2023-04-08T03:14:20.002Z,12.05
2023-04-08T03:16:46.488Z,10.73
2023-04-08T03:19:12.901Z,10.80
2023-04-08T03:21:39.204Z,10.90
2023-04-08T03:24:05.792Z,11.38
2023-04-08T03:26:32.563Z,10.60
2023-04-08T03:28:59.296Z,12.88
2023-04-08T03:31:26.057Z,12.30
2023-04-08T03:33:52.417Z,11.98
2023-04-08T03:36:19.144Z,11.00
2023-04-08T03:38:46.296Z,11.02
2023-04-08T03:41:12.609Z,11.73
2023-04-08T03:43:38.980Z,11.20
2023-04-08T03:46:05.809Z,13.00
2023-04-08T03:48:32.445Z,12.85
2023-04-08T03:50:58.832Z,13.10
2023-04-08T03:53:28.293Z,11.90
2023-04-08T03:55:55.841Z,10.38
2023-04-08T03:58:22.191Z,10.90
2023-04-08T04:00:49.084Z,10.75
2023-04-08T04:03:15.612Z,10.38
2023-04-08T04:05:42.089Z,8.77
2023-04-08T04:08:09.447Z,9.73
2023-04-08T04:10:35.945Z,10.18
2023-04-08T04:13:02.351Z,6.88
2023-04-08T04:15:29.089Z,6.72
2023-04-08T04:17:55.496Z,5.25
2023-04-08T04:20:21.940Z,6.15
2023-04-08T04:22:48.674Z,5.97
2023-04-08T04:25:15.062Z,6.03
2023-04-08T04:27:41.386Z,6.00
2023-04-08T04:30:09.861Z,6.40
2023-04-08T04:32:36.255Z,6.15
2023-04-08T04:35:02.706Z,6.57
2023-04-08T04:37:29.441Z,6.28
2023-04-08T04:39:55.905Z,7.35
2023-04-08T04:42:22.667Z,6.78
2023-04-08T04:44:49.250Z,6.65
2023-04-08T04:47:16.346Z,6.22
2023-04-08T04:49:43.165Z,7.18
2023-04-08T04:52:09.547Z,5.65
2023-04-08T04:54:36.211Z,6.32
2023-04-08T04:57:03.048Z,6.63
2023-04-08T04:59:29.420Z,6.88
2023-04-08T05:01:58.247Z,6.75
2023-04-08T05:04:25.798Z,7.10
2023-04-08T05:06:52.264Z,6.93
2023-04-08T05:09:19.072Z,6.25
2023-04-08T05:11:45.443Z,6.40
2023-04-08T05:14:13.036Z,6.80
2023-04-08T05:16:39.463Z,6.00
2023-04-08T05:19:05.836Z,7.07
2023-04-08T05:21:33.070Z,6.72
2023-04-08T05:23:59.443Z,5.88
2023-04-08T05:26:26.255Z,6.05
2023-04-08T05:28:53.129Z,7.03
2023-04-08T05:31:20.053Z,7.63
2023-04-08T05:33:47.123Z,8.50
2023-04-08T05:36:14.742Z,8.15
2023-04-08T05:38:43.138Z,8.00
2023-04-08T05:41:09.884Z,8.45
2023-04-08T05:43:37.049Z,8.73
2023-04-08T05:46:08.015Z,9.25
2023-04-08T05:48:34.969Z,9.65
2023-04-08T05:51:01.586Z,9.48
2023-04-08T05:53:28.150Z,9.40
2023-04-08T05:55:55.181Z,10.00
2023-04-08T05:58:21.513Z,11.18
2023-04-08T06:00:47.855Z,10.70
2023-04-08T06:03:14.877Z,11.13
2023-04-08T06:05:42.154Z,13.15
2023-04-08T06:08:09.158Z,12.30
2023-04-08T06:10:36.121Z,12.35
2023-04-08T06:13:02.467Z,13.18
2023-04-08T06:15:28.889Z,12.35
2023-04-08T06:17:55.832Z,12.18
2023-04-08T06:20:22.553Z,12.05
2023-04-08T06:22:48.908Z,11.88
2023-04-08T06:25:15.296Z,11.30
2023-04-08T06:27:42.113Z,11.88
2023-04-08T06:30:09.086Z,9.77
2023-04-08T06:32:35.572Z,10.43
2023-04-08T06:35:02.434Z,10.32
2023-04-08T06:37:28.739Z,11.02
2023-04-08T06:39:55.346Z,10.60
2023-04-08T06:42:23.129Z,10.57
2023-04-08T06:44:49.543Z,10.85
2023-04-08T06:47:16.979Z,10.90
2023-04-08T06:49:43.716Z,11.52
2023-04-08T06:52:10.060Z,10.55
2023-04-08T06:54:36.421Z,11.18
2023-04-08T06:57:04.475Z,10.80
2023-04-08T06:59:31.271Z,11.07
2023-04-08T07:01:57.790Z,10.88
2023-04-08T07:04:24.512Z,10.85
2023-04-08T07:06:51.556Z,11.50
2023-04-08T07:09:18.124Z,10.65
2023-04-08T07:11:45.013Z,9.35
2023-04-08T07:14:12.169Z,9.77
2023-04-08T07:16:39.035Z,10.38
2023-04-08T07:19:05.608Z,10.38
2023-04-08T07:21:32.033Z,9.43
2023-04-08T07:23:59.035Z,9.70
2023-04-08T07:26:25.636Z,9.27
2023-04-08T07:28:53.015Z,11.32
2023-04-08T07:31:20.351Z,9.80
2023-04-08T07:33:46.804Z,10.63
2023-04-08T07:36:14.437Z,9.55
2023-04-08T07:38:41.158Z,9.48
2023-04-08T07:41:07.713Z,10.60
2023-04-08T07:43:34.435Z,6.95
2023-04-08T07:46:03.619Z,8.93
2023-04-08T07:48:30.955Z,8.73
2023-04-08T07:51:10.206Z,8.68
2023-04-08T07:53:39.099Z,8.20
2023-04-08T07:56:12.388Z,8.18
2023-04-08T07:58:40.333Z,8.38
2023-04-08T08:01:22.281Z,8.50
2023-04-08T08:03:49.886Z,8.32
2023-04-08T08:06:16.863Z,8.82
2023-04-08T08:08:44.236Z,8.68
2023-04-08T08:11:10.671Z,8.27
2023-04-08T08:13:37.057Z,8.77
2023-04-08T08:16:03.879Z,8.77
2023-04-08T08:18:30.309Z,9.05
2023-04-08T08:20:56.626Z,8.52
2023-04-08T08:23:23.795Z,8.32
2023-04-08T08:25:50.377Z,9.00
2023-04-08T08:28:18.121Z,8.23
2023-04-08T08:30:44.552Z,8.27
2023-04-08T08:33:11.178Z,8.43
2023-04-08T08:35:37.653Z,8.50
2023-04-08T08:38:04.431Z,7.63
2023-04-08T08:40:30.801Z,7.05
2023-04-08T08:42:59.056Z,6.35
2023-04-08T08:45:25.863Z,7.35
2023-04-08T08:47:52.418Z,8.98
2023-04-08T08:50:19.647Z,6.38
2023-04-08T08:52:53.012Z,7.20
2023-04-08T08:55:41.469Z,7.10
2023-04-08T08:58:08.815Z,7.00
2023-04-08T09:00:36.522Z,6.47
2023-04-08T09:03:24.214Z,6.57
2023-04-08T09:06:01.653Z,8.68
2023-04-08T09:08:33.232Z,7.95
2023-04-08T09:11:13.869Z,5.88
2023-04-08T09:13:41.425Z,8.75
2023-04-08T09:16:12.303Z,8.43
2023-04-08T09:18:39.129Z,8.48
2023-04-08T09:21:07.471Z,7.65
2023-04-08T09:23:40.944Z,9.07
2023-04-08T09:26:24.580Z,7.22
2023-04-08T09:29:08.455Z,7.90
2023-04-08T09:31:41.796Z,8.02
2023-04-08T09:34:17.365Z,7.97
2023-04-08T09:36:47.682Z,8.20
2023-04-08T09:39:14.012Z,7.93
2023-04-08T09:41:41.701Z,8.25
2023-04-08T09:44:09.869Z,8.40
2023-04-08T09:46:51.843Z,6.45
2023-04-08T09:49:31.166Z,7.75
2023-04-08T09:52:24.214Z,8.02
2023-04-08T09:55:08.503Z,7.75
2023-04-08T09:57:42.211Z,7.40
2023-04-08T10:00:12.990Z,7.93
2023-04-08T10:02:46.188Z,7.88
2023-04-08T10:05:14.500Z,7.95
2023-04-08T10:07:41.652Z,7.43
2023-04-08T10:10:12.047Z,7.72
2023-04-08T10:12:39.069Z,7.90
2023-04-08T10:15:28.507Z,6.65
2023-04-08T10:18:08.210Z,7.38
2023-04-08T10:20:35.000Z,7.25
2023-04-08T10:23:13.106Z,7.78
2023-04-08T10:25:48.138Z,6.28
2023-04-08T10:28:15.157Z,6.82
2023-04-08T10:30:52.408Z,7.93
2023-04-08T10:33:35.304Z,7.93
2023-04-08T10:36:11.178Z,7.35
2023-04-08T10:38:39.014Z,7.38
2023-04-08T10:41:05.390Z,7.30
2023-04-08T10:43:35.727Z,7.55
2023-04-08T10:46:04.817Z,7.18
2023-04-08T10:48:31.312Z,6.53
2023-04-08T10:51:03.088Z,7.47
2023-04-08T10:53:32.153Z,7.22
2023-04-08T10:56:05.349Z,6.70
2023-04-08T10:58:32.229Z,5.00
2023-04-08T11:01:08.641Z,5.53
2023-04-08T11:03:37.228Z,7.20
2023-04-08T11:06:04.339Z,6.82
2023-04-08T11:08:33.958Z,5.90
2023-04-08T11:11:08.685Z,5.47
2023-04-08T11:16:17.667Z,6.72
2023-04-08T11:18:46.266Z,6.30
2023-04-08T11:21:12.718Z,7.53
2023-04-08T11:23:39.280Z,7.30
2023-04-08T11:26:06.485Z,7.22
2023-04-08T11:28:33.817Z,7.70
2023-04-08T11:31:00.439Z,6.28
2023-04-08T11:33:30.463Z,8.02
2023-04-08T11:35:56.907Z,7.25
2023-04-08T11:38:24.684Z,7.57
2023-04-08T11:41:01.899Z,8.02
2023-04-08T11:43:28.558Z,6.60
2023-04-08T11:45:55.121Z,6.88
2023-04-08T11:48:22.051Z,6.95
2023-04-08T11:50:48.443Z,6.60
2023-04-08T11:53:22.392Z,7.22
2023-04-08T11:55:49.147Z,7.40
2023-04-08T11:58:15.701Z,7.13
2023-04-08T12:00:43.992Z,6.55
2023-04-08T12:03:10.911Z,7.50
2023-04-08T12:05:37.450Z,7.05
2023-04-08T12:08:05.266Z,7.07
2023-04-08T12:10:31.604Z,7.63
2023-04-08T12:12:57.977Z,6.70
2023-04-08T12:15:24.596Z,7.10
2023-04-08T12:17:50.941Z,7.65
2023-04-08T12:20:17.596Z,6.72
2023-04-08T12:22:44.325Z,7.18
2023-04-08T12:25:10.724Z,7.05
2023-04-08T12:27:37.107Z,8.55
2023-04-08T12:30:04.313Z,7.05
2023-04-08T12:32:30.811Z,7.43
2023-04-08T12:34:57.200Z,7.57
2023-04-08T12:37:24.045Z,7.80
2023-04-08T12:39:50.564Z,7.50
2023-04-08T12:42:17.080Z,7.10
2023-04-08T12:44:43.894Z,6.60
2023-04-08T12:47:10.351Z,6.70
2023-04-08T12:49:48.855Z,5.72
2023-04-08T12:52:16.463Z,7.40
2023-04-08T12:54:42.777Z,6.30
2023-04-08T12:57:09.087Z,7.13
2023-04-08T12:59:36.270Z,6.30
2023-04-08T13:02:02.723Z,6.85
2023-04-08T13:04:29.120Z,6.30
2023-04-08T13:06:57.348Z,6.22
2023-04-08T13:09:23.710Z,7.93
2023-04-08T13:11:50.035Z,5.88
2023-04-08T13:14:16.772Z,6.93
2023-04-08T13:16:43.129Z,6.57
2023-04-08T13:19:09.548Z,6.55
2023-04-08T13:21:36.605Z,4.57
2023-04-08T13:24:02.975Z,5.75
2023-04-08T13:26:29.356Z,5.57
2023-04-08T13:28:57.786Z,5.93
2023-04-08T13:31:25.392Z,5.72
2023-04-08T13:33:52.318Z,5.80
2023-04-08T13:36:20.085Z,4.00
2023-04-08T13:38:46.419Z,5.10
2023-04-08T13:41:12.793Z,6.40
2023-04-08T13:43:39.648Z,5.03
2023-04-08T13:46:06.200Z,5.68
2023-04-08T13:48:32.601Z,6.22
2023-04-08T13:50:59.343Z,6.30
2023-04-08T13:53:28.135Z,5.85
2023-04-08T13:55:55.886Z,6.03
2023-04-08T13:58:24.103Z,4.32
2023-04-08T14:00:51.615Z,4.35
2023-04-08T14:03:18.521Z,6.00
2023-04-08T14:05:45.756Z,4.85
2023-04-08T14:08:13.251Z,5.55
2023-04-08T14:10:39.706Z,3.78
2023-04-08T14:13:06.466Z,5.57
2023-04-08T14:15:32.816Z,5.50
2023-04-08T14:17:59.202Z,5.80
2023-04-08T14:20:25.981Z,6.78
2023-04-08T14:22:52.330Z,4.78
2023-04-08T14:25:18.985Z,5.80
2023-04-08T14:27:57.327Z,5.78
2023-04-08T14:30:24.630Z,5.10
2023-04-08T14:32:51.221Z,6.60
2023-04-08T14:35:17.684Z,6.47
2023-04-08T14:37:44.509Z,6.95
2023-04-08T14:40:11.473Z,5.15
2023-04-08T14:42:37.852Z,6.80
2023-04-08T14:45:04.976Z,8.35
2023-04-08T14:47:31.487Z,7.15
2023-04-08T14:49:57.821Z,6.55
2023-04-08T14:52:25.195Z,6.20
2023-04-08T14:54:52.412Z,6.70
2023-04-08T14:57:19.973Z,5.85
2023-04-08T14:59:46.322Z,6.15
2023-04-08T15:02:12.782Z,6.60
2023-04-08T15:04:39.230Z,6.95
2023-04-08T15:07:06.547Z,7.18
2023-04-08T15:09:33.170Z,7.40
2023-04-08T15:11:59.932Z,6.03
2023-04-08T15:14:26.881Z,8.75
2023-04-08T15:16:53.257Z,9.20
2023-04-08T15:19:20.141Z,7.78
2023-04-08T15:21:46.869Z,6.57
2023-04-08T15:24:13.922Z,9.05
2023-04-08T15:26:40.818Z,8.88
2023-04-08T15:29:07.689Z,9.00
2023-04-08T15:31:34.938Z,8.35
2023-04-08T15:34:02.602Z,8.65
2023-04-08T15:36:30.255Z,8.23
2023-04-08T15:38:56.803Z,6.45
2023-04-08T15:41:23.173Z,8.07
2023-04-08T15:43:50.477Z,7.53
2023-04-08T15:46:22.974Z,6.88
2023-04-08T15:48:51.068Z,6.32
2023-04-08T15:51:17.925Z,7.43
2023-04-08T15:53:44.363Z,10.15
2023-04-08T15:56:18.282Z,7.93
2023-04-08T15:58:46.195Z,8.67
2023-04-08T16:01:13.011Z,7.47
2023-04-08T16:03:39.787Z,7.35
2023-04-08T16:06:06.422Z,5.68
2023-04-08T16:08:34.586Z,6.63
2023-04-08T16:11:03.228Z,6.65
2023-04-08T16:13:30.185Z,6.15
2023-04-08T16:15:58.331Z,4.47
2023-04-08T16:18:26.233Z,7.13
2023-04-08T16:20:52.946Z,4.18
2023-04-08T16:23:19.667Z,6.25
2023-04-08T16:25:46.906Z,7.30
2023-04-08T16:28:13.419Z,6.00
2023-04-08T16:30:43.389Z,7.22
2023-04-08T16:33:13.517Z,5.57
2023-04-08T16:35:40.236Z,6.60
2023-04-08T16:38:06.820Z,5.95
2023-04-08T16:40:33.785Z,6.35
2023-04-08T16:43:00.886Z,5.10
2023-04-08T16:45:30.944Z,6.35
2023-04-08T16:47:58.065Z,6.88
2023-04-08T16:50:24.746Z,6.35
2023-04-08T16:52:51.580Z,7.53
2023-04-08T16:55:19.874Z,6.28
2023-04-08T16:57:46.558Z,7.45
2023-04-08T17:00:13.686Z,5.43
2023-04-08T17:02:40.818Z,5.43
2023-04-08T17:05:07.770Z,6.25
2023-04-08T17:07:34.350Z,6.82
2023-04-08T17:10:01.090Z,7.45
2023-04-08T17:12:27.567Z,6.80
2023-04-08T17:14:53.943Z,6.50
2023-04-08T17:17:20.685Z,6.85
2023-04-08T17:19:47.103Z,6.80
2023-04-08T17:22:13.442Z,6.50
2023-04-08T17:24:40.214Z,6.47
2023-04-08T17:27:06.847Z,7.07
2023-04-08T17:29:33.186Z,6.88
2023-04-08T17:31:59.936Z,8.00
2023-04-08T17:34:26.319Z,7.07
2023-04-08T17:36:52.698Z,7.68
2023-04-08T17:39:19.447Z,6.82
2023-04-08T17:41:46.152Z,9.05
2023-04-08T17:44:12.745Z,7.82
2023-04-08T17:46:39.498Z,7.88
2023-04-08T17:49:05.853Z,7.03
2023-04-08T17:51:32.775Z,6.53
2023-04-08T17:53:59.632Z,6.40
2023-04-08T17:56:27.699Z,6.95
2023-04-08T17:58:54.050Z,7.60
2023-04-08T18:01:22.404Z,7.50
2023-04-08T18:03:51.093Z,6.93
2023-04-08T18:06:17.952Z,6.95
2023-04-08T18:08:45.833Z,7.05
2023-04-08T18:11:12.265Z,6.57
2023-04-08T18:13:38.674Z,7.13
2023-04-08T18:16:05.935Z,7.38
2023-04-08T18:18:32.401Z,8.23
2023-04-08T18:20:58.741Z,7.15
2023-04-08T18:23:25.421Z,7.25
2023-04-08T18:25:51.813Z,6.80
2023-04-08T18:28:18.147Z,7.40
2023-04-08T18:30:44.736Z,6.90
2023-04-08T18:33:11.137Z,7.68
2023-04-08T18:35:37.456Z,7.40
2023-04-08T18:38:04.024Z,9.05
2023-04-08T18:40:31.104Z,8.13
2023-04-08T18:43:01.809Z,6.97
2023-04-08T18:45:29.447Z,6.95
2023-04-08T18:47:56.021Z,7.28
2023-04-08T18:50:23.145Z,7.28
2023-04-08T18:52:49.820Z,7.57
2023-04-08T18:55:16.579Z,7.22
2023-04-08T18:57:43.390Z,8.07
2023-04-08T19:00:09.860Z,7.90
2023-04-08T19:02:36.659Z,11.20
2023-04-08T19:07:48.644Z,8.02
2023-04-08T19:10:14.975Z,7.80
2023-04-08T19:12:41.321Z,7.45
2023-04-08T19:15:08.328Z,7.25
2023-04-08T19:17:34.683Z,7.43
2023-04-08T19:20:02.992Z,7.70
2023-04-08T19:22:29.638Z,7.78
2023-04-08T19:24:56.066Z,7.72
2023-04-08T19:27:22.461Z,7.43
2023-04-08T19:29:50.231Z,7.25
2023-04-08T19:32:16.582Z,6.88
2023-04-08T19:34:42.908Z,7.53
2023-04-08T19:37:09.830Z,6.60
2023-04-08T19:39:36.170Z,6.50
2023-04-08T19:42:02.537Z,6.05
2023-04-08T19:44:29.674Z,6.93
2023-04-08T19:46:58.100Z,6.63
2023-04-08T19:49:24.772Z,6.80
2023-04-08T19:51:51.943Z,6.93
2023-04-08T19:54:18.662Z,6.60
2023-04-08T19:56:45.522Z,6.90
2023-04-08T19:59:11.892Z,7.18
2023-04-08T20:01:40.052Z,7.45
2023-04-08T20:04:07.370Z,8.77
2023-04-08T20:06:34.692Z,8.57
2023-04-08T20:09:05.912Z,8.55
2023-04-08T20:11:34.980Z,8.48
2023-04-08T20:14:01.374Z,7.50
2023-04-08T20:16:28.212Z,8.15
2023-04-08T20:18:54.649Z,8.07
2023-04-08T20:21:20.984Z,8.00
2023-04-08T20:23:47.407Z,7.72
2023-04-08T20:26:14.226Z,7.72
2023-04-08T20:28:43.176Z,7.93
2023-04-08T20:31:09.537Z,8.20
2023-04-08T20:33:38.630Z,8.23
2023-04-08T20:36:05.165Z,8.27
2023-04-08T20:38:35.099Z,7.43
2023-04-08T20:41:02.403Z,8.00
2023-04-08T20:43:28.868Z,7.97
2023-04-08T20:45:55.186Z,7.07
2023-04-08T20:48:22.128Z,8.05
2023-04-08T20:50:48.967Z,8.13
2023-04-08T20:53:16.987Z,7.85
2023-04-08T20:55:43.714Z,8.00
2023-04-08T20:58:10.912Z,7.95
2023-04-08T21:00:37.380Z,7.75
2023-04-08T21:03:04.132Z,7.25
2023-04-08T21:05:30.691Z,7.53
2023-04-08T21:07:57.003Z,7.30
2023-04-08T21:10:23.628Z,7.38
2023-04-08T21:12:50.061Z,7.38
2023-04-08T21:15:16.420Z,6.68
2023-04-08T21:17:43.361Z,8.38
2023-04-08T21:20:10.454Z,7.13
2023-04-08T21:22:36.773Z,8.13
2023-04-08T21:25:03.836Z,7.22
2023-04-08T21:27:30.252Z,7.18
2023-04-08T21:29:56.608Z,7.65
2023-04-08T21:32:23.854Z,6.57
2023-04-08T21:34:53.817Z,6.70
2023-04-08T21:37:20.846Z,6.97
2023-04-08T21:39:47.340Z,6.65
2023-04-08T21:42:13.865Z,7.90
2023-04-08T21:44:40.182Z,7.47
2023-04-08T21:47:06.844Z,7.20
2023-04-08T21:49:33.160Z,7.70
2023-04-08T21:51:59.555Z,7.25
2023-04-08T21:54:26.272Z,7.80
2023-04-08T21:56:52.665Z,7.47
2023-04-08T21:59:19.878Z,8.02
2023-04-08T22:01:46.562Z,7.10
2023-04-08T22:04:13.529Z,7.53
2023-04-08T22:06:39.931Z,8.23
2023-04-08T22:09:07.256Z,7.43
2023-04-08T22:11:33.796Z,8.13
2023-04-08T22:14:00.219Z,8.27
2023-04-08T22:16:27.059Z,7.50
2023-04-08T22:18:53.689Z,8.48
2023-04-08T22:21:20.881Z,7.63
2023-04-08T22:23:47.558Z,7.63
2023-04-08T22:26:15.640Z,6.65
2023-04-08T22:28:42.561Z,7.30
2023-04-08T22:31:10.941Z,6.75
2023-04-08T22:33:38.392Z,7.90
2023-04-08T22:36:05.669Z,7.50
2023-04-08T22:38:32.321Z,7.28
2023-04-08T22:40:58.743Z,6.97
2023-04-08T22:43:25.960Z,7.57
2023-04-08T22:45:52.434Z,7.45
2023-04-08T22:48:18.856Z,7.65
2023-04-08T22:50:45.646Z,8.05
2023-04-08T22:53:12.878Z,7.22
2023-04-08T22:55:39.707Z,7.55
2023-04-08T22:58:06.245Z,7.40
2023-04-08T23:00:32.552Z,7.68
2023-04-08T23:02:59.403Z,7.97
2023-04-08T23:05:25.949Z,8.43
2023-04-08T23:07:52.282Z,7.28
2023-04-08T23:10:18.994Z,7.65
2023-04-08T23:12:45.659Z,7.13
2023-04-08T23:15:11.982Z,7.72
2023-04-08T23:17:38.749Z,6.90
2023-04-08T23:20:05.821Z,6.97
2023-04-08T23:22:32.144Z,7.40
2023-04-08T23:24:58.798Z,7.40
2023-04-08T23:27:25.104Z,7.15
2023-04-08T23:29:51.414Z,7.15
2023-04-08T23:32:18.127Z,7.65
2023-04-08T23:34:44.451Z,7.60
2023-04-08T23:37:10.788Z,7.93
2023-04-08T23:39:37.533Z,7.97
2023-04-08T23:42:04.281Z,7.88
2023-04-08T23:44:30.639Z,6.75
2023-04-08T23:46:57.055Z,8.00
2023-04-08T23:49:23.746Z,7.80
2023-04-08T23:51:50.217Z,7.10
2023-04-08T23:54:16.915Z,7.53
2023-04-08T23:56:43.270Z,7.20
2023-04-08T23:59:10.045Z,6.38
